Time;durP1;ratioP1;P1;durP2;ratioP2;P2;SDS_P1;SDS_P2;PMS_P1;PMS_P2;Temp;Humidity;BMP_temperature;BMP_pressure;BME280_temperature;BME280_humidity;BME280_pressure;Samples;Min_cycle;Max_cycle;Signal;HPM_P1;HPM_P2
2023/06/07 00:01:08;;;;;;;;;;;;;;;15.76;61.04;101945.47;5114535;28;19928;-74
2023/06/07 00:03:34;;;;;;;;;;;;;;;15.72;61.54;101950.00;5109848;28;19958;-74
2023/06/07 00:06:02;;;;;;;;;;;;;;;15.69;59.48;101950.97;5114649;28;20344;-74
2023/06/07 00:08:28;;;;;;;;;;;;;;;15.66;60.39;101951.00;5113941;28;19923;-74
2023/06/07 00:10:54;;;;;;;;;;;;;;;15.63;60.50;101952.91;5114094;28;20352;-74
2023/06/07 00:13:19;;;;;;;;;;;;;;;15.59;60.75;101953.88;5129940;27;19919;-74
2023/06/07 00:15:45;;;;;;;;;;;;;;;15.57;60.55;101951.25;5114015;28;19927;-74
2023/06/07 00:18:10;;;;;;;;;;;;;;;15.57;61.06;101953.91;5124098;27;19915;-74
2023/06/07 00:20:36;;;;;;;;;;;;;;;15.55;61.43;101952.19;5113684;28;19953;-73
2023/06/07 00:23:01;;;;;;;;;;;;;;;15.53;61.66;101944.25;5107184;28;19920;-73
2023/06/07 00:25:27;;;;;;;;;;;;;;;15.52;62.22;101952.28;5106369;28;19919;-74
2023/06/07 00:27:53;;;;;;;;;;;;;;;15.49;61.70;101961.25;5113732;28;20019;-74
2023/06/07 00:30:18;;;;;;;;;;;;;;;15.45;61.04;101959.56;5109605;28;20239;-73
2023/06/07 00:32:47;;;;;;;;;;;;;;;15.43;61.38;101958.69;5111047;28;19915;-73
2023/06/07 00:35:12;;;;;;;;;;;;;;;15.38;60.28;101950.84;5098033;28;20380;-73
2023/06/07 00:37:38;;;;;;;;;;;;;;;15.35;60.62;101950.88;5106941;28;20018;-73
2023/06/07 00:40:07;;;;;;;;;;;;;;;15.35;60.80;101945.53;5126320;27;20041;-73
2023/06/07 00:42:33;;;;;;;;;;;;;;;15.34;60.59;101949.16;5098304;28;19920;-74
2023/06/07 00:44:58;;;;;;;;;;;;;;;15.34;60.63;101950.94;5110959;28;20246;-74
2023/06/07 00:47:25;;;;;;;;;;;;;;;15.28;61.74;101946.59;5119005;27;20177;-74
2023/06/07 00:49:50;;;;;;;;;;;;;;;15.24;62.13;101942.28;5107749;28;20346;-74
2023/06/07 00:52:16;;;;;;;;;;;;;;;15.26;61.31;101944.00;5119494;27;20014;-74
2023/06/07 00:54:43;;;;;;;;;;;;;;;15.26;62.84;101949.31;5111750;28;20166;-74
2023/06/07 00:57:09;;;;;;;;;;;;;;;15.22;61.25;101949.44;5113532;28;20026;-74
2023/06/07 00:59:35;;;;;;;;;;;;;;;15.16;62.79;101941.59;5099192;28;19923;-74
2023/06/07 01:02:01;;;;;;;;;;;;;;;15.10;61.24;101950.59;5126968;27;19920;-73
2023/06/07 01:04:29;;;;;;;;;;;;;;;15.04;62.31;101946.28;5112855;28;19928;-73
2023/06/07 01:06:56;;;;;;;;;;;;;;;15.02;62.37;101949.91;5112768;28;19927;-73
2023/06/07 01:09:22;;;;;;;;;;;;;;;15.00;63.84;101955.25;5128634;27;19927;-73
2023/06/07 01:11:50;;;;;;;;;;;;;;;14.98;62.82;101948.19;5111728;28;19916;-73
2023/06/07 01:14:17;;;;;;;;;;;;;;;14.94;63.17;101950.06;5094275;28;19970;-74
2023/06/07 01:16:44;;;;;;;;;;;;;;;14.91;63.90;101958.16;5111463;28;19974;-74
2023/06/07 01:19:16;;;;;;;;;;;;;;;14.87;62.93;101944.91;5111322;28;19969;-73
2023/06/07 01:21:42;;;;;;;;;;;;;;;14.85;63.45;101950.28;5111478;28;19923;-73
2023/06/07 01:24:09;;;;;;;;;;;;;;;14.84;62.13;101948.53;5128285;27;19915;-73
2023/06/07 01:26:35;;;;;;;;;;;;;;;14.80;61.49;101942.38;5112726;28;19916;-73
2023/06/07 01:29:05;;;;;;;;;;;;;;;14.75;64.24;101946.06;5128145;27;19946;-73
2023/06/07 01:31:34;;;;;;;;;;;;;;;14.69;63.87;101939.06;5112680;28;20014;-73
2023/06/07 01:34:00;;;;;;;;;;;;;;;14.65;63.40;101942.69;5112330;28;19915;-73
2023/06/07 01:36:29;;;;;;;;;;;;;;;14.62;63.52;101932.97;5105732;28;19923;-74
2023/06/07 01:38:55;;;;;;;;;;;;;;;14.60;64.50;101940.13;5119305;27;20031;-73
2023/06/07 01:41:21;;;;;;;;;;;;;;;14.58;63.59;101936.59;5110804;28;19916;-73
2023/06/07 01:43:48;;;;;;;;;;;;;;;14.53;64.00;101930.50;5112593;28;20410;-73
2023/06/07 01:46:14;;;;;;;;;;;;;;;14.50;64.29;101938.53;5105786;28;20287;-73
2023/06/07 01:48:39;;;;;;;;;;;;;;;14.47;63.59;101943.94;5109231;28;19924;-75
2023/06/07 01:51:05;;;;;;;;;;;;;;;14.43;64.62;101939.56;5110759;28;20461;-74
2023/06/07 01:53:30;;;;;;;;;;;;;;;14.38;63.91;101931.66;5124619;27;19919;-74
2023/06/07 01:56:03;;;;;;;;;;;;;;;14.35;63.87;101942.38;5110676;28;19923;-74
2023/06/07 01:58:34;;;;;;;;;;;;;;;14.28;65.24;101932.75;5127789;27;19916;-74
2023/06/07 02:01:18;;;;;;;;;;;;;;;14.24;62.87;101930.19;5109674;28;19915;-74
2023/06/07 02:03:48;;;;;;;;;;;;;;;14.18;64.71;101926.72;5110563;28;19930;-74
2023/06/07 02:06:19;;;;;;;;;;;;;;;14.14;64.44;101927.72;5097916;28;19915;-74
2023/06/07 02:08:52;;;;;;;;;;;;;;;14.16;65.98;101919.69;5110524;28;19978;-74
2023/06/07 02:11:19;;;;;;;;;;;;;;;14.14;63.40;101930.38;5112047;28;20239;-74
2023/06/07 02:13:45;;;;;;;;;;;;;;;14.13;64.17;101930.41;5112011;28;19916;-74
2023/06/07 02:16:11;;;;;;;;;;;;;;;14.09;63.84;101926.03;5110442;28;19914;-74
2023/06/07 02:18:42;;;;;;;;;;;;;;;14.05;65.44;101929.69;5093513;28;20068;-74
2023/06/07 02:21:08;;;;;;;;;;;;;;;14.04;64.97;101930.56;5111839;28;19916;-74
2023/06/07 02:23:33;;;;;;;;;;;;;;;14.02;66.17;101925.28;5110544;28;20261;-75
2023/06/07 02:26:00;;;;;;;;;;;;;;;13.98;64.70;101921.78;5111981;28;19920;-74
2023/06/07 02:28:26;;;;;;;;;;;;;;;13.96;65.08;101918.28;5127319;27;19935;-74
2023/06/07 02:30:51;;;;;;;;;;;;;;;13.92;64.76;101923.69;5110275;28;20002;-74
2023/06/07 02:33:21;;;;;;;;;;;;;;;13.88;64.96;101936.19;5127339;27;19958;-74
2023/06/07 02:35:48;;;;;;;;;;;;;;;13.85;64.11;101928.25;5093510;28;19920;-74
2023/06/07 02:38:14;;;;;;;;;;;;;;;13.81;66.01;101928.34;5111684;28;19919;-74
2023/06/07 02:40:39;;;;;;;;;;;;;;;13.75;65.83;101922.22;5109884;28;20290;-74
2023/06/07 02:43:05;;;;;;;;;;;;;;;13.73;66.36;101925.81;5110254;28;19919;-74
2023/06/07 02:45:30;;;;;;;;;;;;;;;13.72;64.66;101922.28;5110061;28;20333;-74
2023/06/07 02:47:56;;;;;;;;;;;;;;;13.69;64.86;101924.09;5111881;28;20278;-74
2023/06/07 02:50:23;;;;;;;;;;;;;;;13.66;67.98;101929.47;5110029;28;19920;-74
2023/06/07 02:52:50;;;;;;;;;;;;;;;13.65;67.24;101927.72;5110168;28;20096;-74
2023/06/07 02:55:16;;;;;;;;;;;;;;;13.61;67.31;101929.56;5109951;28;19923;-74
2023/06/07 02:57:42;;;;;;;;;;;;;;;13.58;67.00;101931.41;5110094;28;20227;-74
2023/06/07 03:00:10;;;;;;;;;;;;;;;13.55;67.00;101935.00;5126816;28;20389;-74
2023/06/07 03:02:45;;;;;;;;;;;;;;;13.53;65.62;101929.69;5127029;28;20265;-75
2023/06/07 03:05:10;;;;;;;;;;;;;;;13.48;66.22;101931.56;5109712;28;19920;-74
2023/06/07 03:07:36;;;;;;;;;;;;;;;13.45;67.61;101926.28;5126667;28;19951;-74
2023/06/07 03:10:04;;;;;;;;;;;;;;;13.44;67.76;101932.50;5110051;28;19920;-74
2023/06/07 03:12:30;;;;;;;;;;;;;;;13.40;68.65;101933.47;5113370;28;19919;-74
2023/06/07 03:14:57;;;;;;;;;;;;;;;13.40;68.74;101932.56;5131008;27;19973;-74
2023/06/07 03:17:23;;;;;;;;;;;;;;;13.40;66.95;101928.16;5130890;27;19920;-74
2023/06/07 03:19:53;;;;;;;;;;;;;;;13.41;66.46;101937.88;5131008;27;19930;-74
2023/06/07 03:22:21;;;;;;;;;;;;;;;13.42;66.21;101944.06;5113673;28;20007;-74
2023/06/07 03:24:49;;;;;;;;;;;;;;;13.39;67.14;101930.81;5131022;27;20328;-74
2023/06/07 03:27:15;;;;;;;;;;;;;;;13.34;67.41;101939.75;5131109;27;20022;-74
2023/06/07 03:29:41;;;;;;;;;;;;;;;13.31;67.59;101942.47;5116312;27;19923;-74
2023/06/07 03:32:07;;;;;;;;;;;;;;;13.30;69.22;101934.50;5130978;27;19920;-75
2023/06/07 03:34:36;;;;;;;;;;;;;;;13.30;69.15;101942.47;5116147;27;19920;-75
2023/06/07 03:37:03;;;;;;;;;;;;;;;13.28;70.28;101937.19;5130648;27;20018;-74
2023/06/07 03:39:31;;;;;;;;;;;;;;;13.28;69.79;101945.19;5130216;27;19927;-74
2023/06/07 03:41:57;;;;;;;;;;;;;;;13.30;67.92;101947.78;5113512;28;19982;-74
2023/06/07 03:44:25;;;;;;;;;;;;;;;13.29;68.11;101944.25;5130347;27;20015;-74
2023/06/07 03:46:50;;;;;;;;;;;;;;;13.28;68.10;101946.97;5118014;27;20259;-74
2023/06/07 03:49:16;;;;;;;;;;;;;;;13.27;68.54;101942.53;5096131;28;19963;-74
2023/06/07 03:51:43;;;;;;;;;;;;;;;13.27;69.80;101945.19;5112966;28;19930;-74
2023/06/07 03:54:09;;;;;;;;;;;;;;;13.25;68.21;101939.88;5130250;27;19930;-74
2023/06/07 03:56:35;;;;;;;;;;;;;;;13.23;68.77;101941.69;5113096;28;20010;-74
2023/06/07 03:59:01;;;;;;;;;;;;;;;13.24;68.61;101942.56;5095830;28;20014;-74
2023/06/07 04:01:28;;;;;;;;;;;;;;;13.24;67.65;101942.56;5130356;27;19934;-74
2023/06/07 04:03:56;;;;;;;;;;;;;;;13.24;69.12;101946.09;5112636;28;20282;-74
2023/06/07 04:06:24;;;;;;;;;;;;;;;13.21;70.13;101940.81;5114499;28;19991;-74
2023/06/07 04:08:51;;;;;;;;;;;;;;;13.21;69.08;101947.94;5129745;27;19924;-74
2023/06/07 04:11:20;;;;;;;;;;;;;;;13.18;70.56;101939.97;5130131;27;19920;-74
2023/06/07 04:13:45;;;;;;;;;;;;;;;13.17;69.94;101944.41;5114111;28;19919;-74
2023/06/07 04:16:11;;;;;;;;;;;;;;;13.16;69.25;101944.47;5113047;28;19919;-74
2023/06/07 04:18:38;;;;;;;;;;;;;;;13.12;69.82;101938.28;5120384;27;19923;-74
2023/06/07 04:21:04;;;;;;;;;;;;;;;13.07;69.00;101943.66;5112653;28;20007;-75
2023/06/07 04:23:31;;;;;;;;;;;;;;;13.09;69.13;101943.66;5095020;28;20010;-75
2023/06/07 04:25:56;;;;;;;;;;;;;;;13.10;69.74;101941.00;5112621;28;20300;-74
2023/06/07 04:28:25;;;;;;;;;;;;;;;13.13;70.16;101943.59;5114109;28;19969;-74
2023/06/07 04:30:53;;;;;;;;;;;;;;;13.18;71.15;101945.28;5129557;27;19960;-74
2023/06/07 04:33:20;;;;;;;;;;;;;;;13.17;70.25;101940.88;5129775;27;20322;-74
2023/06/07 04:35:48;;;;;;;;;;;;;;;13.17;69.11;101939.09;5129543;27;20006;-74
2023/06/07 04:38:20;;;;;;;;;;;;;;;13.21;71.22;101945.28;5112479;28;19920;-74
2023/06/07 04:40:49;;;;;;;;;;;;;;;13.23;70.82;101941.69;5108282;27;19916;-74
2023/06/07 04:43:18;;;;;;;;;;;;;;;13.24;70.91;101946.09;5112073;28;19949;-74
2023/06/07 04:45:55;;;;;;;;;;;;;;;13.24;70.78;101951.41;5120316;27;19920;-74
2023/06/07 04:48:24;;;;;;;;;;;;;;;13.28;70.11;101955.81;5111385;28;19924;-74
2023/06/07 04:50:50;;;;;;;;;;;;;;;13.31;68.53;101961.09;5095225;28;19988;-75
2023/06/07 04:53:17;;;;;;;;;;;;;;;13.31;70.33;101954.88;5113341;28;19916;-75
2023/06/07 04:55:44;;;;;;;;;;;;;;;13.29;69.24;101957.56;5111962;28;20320;-74
2023/06/07 04:58:10;;;;;;;;;;;;;;;13.32;69.73;101962.84;5113619;28;19931;-74
2023/06/07 05:00:39;;;;;;;;;;;;;;;13.34;69.91;101955.72;5111746;28;19994;-74
2023/06/07 05:03:08;;;;;;;;;;;;;;;13.39;70.01;101950.31;5129751;27;19927;-74
2023/06/07 05:05:35;;;;;;;;;;;;;;;13.42;69.74;101955.59;5111474;28;19943;-74
2023/06/07 05:08:01;;;;;;;;;;;;;;;13.47;69.01;101956.38;5128694;27;19948;-74
2023/06/07 05:10:27;;;;;;;;;;;;;;;13.48;70.42;101950.19;5113250;28;19916;-74
2023/06/07 05:12:56;;;;;;;;;;;;;;;13.51;67.78;101947.47;5128795;27;19916;-74
2023/06/07 05:15:23;;;;;;;;;;;;;;;13.52;70.11;101949.22;5111571;28;20353;-75
2023/06/07 05:17:49;;;;;;;;;;;;;;;13.57;68.49;101951.78;5111458;28;20381;-75
2023/06/07 05:20:15;;;;;;;;;;;;;;;13.59;69.80;101951.78;5112973;28;20065;-75
2023/06/07 05:22:41;;;;;;;;;;;;;;;13.66;68.79;101953.44;5128599;27;19996;-75
2023/06/07 05:25:08;;;;;;;;;;;;;;;13.72;68.63;101948.00;5128574;27;19915;-74
2023/06/07 05:27:38;;;;;;;;;;;;;;;13.74;69.39;101964.81;5128400;27;19928;-74
2023/06/07 05:30:06;;;;;;;;;;;;;;;13.75;69.57;101962.16;5128496;27;19916;-74
2023/06/07 05:32:36;;;;;;;;;;;;;;;13.80;69.77;101972.72;5115242;27;19923;-74
2023/06/07 05:35:03;;;;;;;;;;;;;;;13.82;68.77;101962.03;5093638;28;20301;-74
2023/06/07 05:37:29;;;;;;;;;;;;;;;13.85;70.15;101965.53;5110976;28;19916;-74
2023/06/07 05:39:54;;;;;;;;;;;;;;;13.85;69.90;101960.22;5098680;28;19916;-74
2023/06/07 05:42:20;;;;;;;;;;;;;;;13.87;68.40;101966.41;5087286;28;20375;-74
2023/06/07 05:44:46;;;;;;;;;;;;;;;13.90;68.21;101962.78;5098973;28;19924;-74
2023/06/07 05:47:11;;;;;;;;;;;;;;;13.95;68.00;101968.91;5103223;28;20395;-74
2023/06/07 05:49:37;;;;;;;;;;;;;;;14.01;69.58;101965.25;5107136;28;19920;-74
2023/06/07 05:52:02;;;;;;;;;;;;;;;14.04;68.78;101970.53;5108344;28;19915;-75
2023/06/07 05:54:28;;;;;;;;;;;;;;;14.06;69.52;101968.72;5104813;28;20103;-75
2023/06/07 05:56:53;;;;;;;;;;;;;;;14.06;69.40;101968.72;5107764;28;19915;-75
2023/06/07 05:59:18;;;;;;;;;;;;;;;14.08;68.87;101967.78;5111877;28;19915;-75
2023/06/07 06:01:45;;;;;;;;;;;;;;;14.08;69.02;101972.22;5112122;28;19966;-75
2023/06/07 06:04:10;;;;;;;;;;;;;;;14.09;66.95;101982.84;5111711;28;19923;-75
2023/06/07 06:06:36;;;;;;;;;;;;;;;14.13;68.78;101981.88;5112177;28;19920;-75
2023/06/07 06:09:02;;;;;;;;;;;;;;;14.14;68.18;101977.44;5111153;28;19927;-75
2023/06/07 06:11:28;;;;;;;;;;;;;;;14.19;68.92;101968.47;5111842;28;20141;-75
2023/06/07 06:13:53;;;;;;;;;;;;;;;14.25;66.63;101977.25;5111349;28;19951;-75
2023/06/07 06:16:18;;;;;;;;;;;;;;;14.26;67.05;101973.66;5111634;28;20281;-75
2023/06/07 06:18:44;;;;;;;;;;;;;;;14.29;68.38;101979.84;5111501;28;20361;-75
2023/06/07 06:21:09;;;;;;;;;;;;;;;14.32;68.51;101979.75;5110046;28;19919;-75
2023/06/07 06:23:35;;;;;;;;;;;;;;;14.37;66.86;101990.34;5111596;28;19919;-75
2023/06/07 06:26:01;;;;;;;;;;;;;;;14.43;66.56;101986.66;5111559;28;20386;-75
2023/06/07 06:28:26;;;;;;;;;;;;;;;14.50;67.38;101983.84;5111598;28;20058;-75
2023/06/07 06:30:51;;;;;;;;;;;;;;;14.58;65.35;101991.72;5111428;28;20426;-75
2023/06/07 06:33:17;;;;;;;;;;;;;;;14.68;67.25;101985.28;5110144;28;19924;-75
2023/06/07 06:35:42;;;;;;;;;;;;;;;14.81;67.88;101989.47;5111134;28;19919;-75
2023/06/07 06:38:07;;;;;;;;;;;;;;;14.96;67.18;101990.94;5111473;28;20355;-75
2023/06/07 06:40:33;;;;;;;;;;;;;;;15.11;66.55;101988.81;5101194;28;19916;-75
2023/06/07 06:43:00;;;;;;;;;;;;;;;15.17;67.00;101994.91;5111356;28;20313;-75
2023/06/07 06:45:39;;;;;;;;;;;;;;;15.24;65.78;102000.97;5101580;28;19920;-75
2023/06/07 06:48:05;;;;;;;;;;;;;;;15.29;65.78;102001.75;5111968;28;19924;-75
2023/06/07 06:50:31;;;;;;;;;;;;;;;15.35;66.08;102003.38;5115197;28;19920;-75
2023/06/07 06:52:56;;;;;;;;;;;;;;;15.39;66.02;102010.44;5110570;28;20354;-75
2023/06/07 06:55:22;;;;;;;;;;;;;;;15.40;64.35;102015.72;5113924;28;19919;-75
2023/06/07 06:57:47;;;;;;;;;;;;;;;15.41;63.54;102005.94;5106524;28;19920;-75
2023/06/07 07:00:13;;;;;;;;;;;;;;;15.42;63.89;102002.34;5110066;28;19919;-75
2023/06/07 07:02:38;;;;;;;;;;;;;;;15.41;64.25;102004.13;5115434;28;19972;-75
2023/06/07 07:05:06;;;;;;;;;;;;;;;15.41;64.51;102000.59;5114854;28;20392;-76
2023/06/07 07:07:34;;;;;;;;;;;;;;;15.44;64.29;102004.06;5097092;28;20016;-75
2023/06/07 07:09:59;;;;;;;;;;;;;;;15.52;64.24;102016.34;5106607;28;20003;-75
2023/06/07 07:12:27;;;;;;;;;;;;;;;15.57;64.19;102014.44;5112175;28;19931;-75
2023/06/07 07:14:53;;;;;;;;;;;;;;;15.65;64.10;102021.38;5096743;28;19923;-75
2023/06/07 07:17:19;;;;;;;;;;;;;;;15.74;63.07;102020.28;5098087;28;20239;-75
2023/06/07 07:19:46;;;;;;;;;;;;;;;15.87;63.98;102015.50;5096582;28;20475;-75
2023/06/07 07:22:11;;;;;;;;;;;;;;;16.01;63.22;102012.50;5110267;28;20028;-76
2023/06/07 07:24:36;;;;;;;;;;;;;;;16.12;62.59;102016.66;5113012;27;19984;-75
2023/06/07 07:27:02;;;;;;;;;;;;;;;16.18;62.89;102020.09;5114864;28;19924;-75
2023/06/07 07:29:27;;;;;;;;;;;;;;;16.23;62.65;102016.34;5109484;28;20014;-75
2023/06/07 07:31:53;;;;;;;;;;;;;;;16.32;62.43;102021.47;5110947;28;19924;-75
2023/06/07 07:34:18;;;;;;;;;;;;;;;16.39;62.42;102018.59;5114674;28;19916;-75
2023/06/07 07:36:44;;;;;;;;;;;;;;;16.48;62.92;102023.72;5114734;28;19922;-75
2023/06/07 07:39:15;;;;;;;;;;;;;;;16.54;62.45;102018.19;5114871;28;19915;-76
2023/06/07 07:41:40;;;;;;;;;;;;;;;16.60;62.25;102023.38;5114617;28;19915;-75
2023/06/07 07:44:06;;;;;;;;;;;;;;;16.68;61.13;102026.69;5114381;28;19985;-75
2023/06/07 07:46:31;;;;;;;;;;;;;;;16.79;61.92;102022.88;5111640;28;19916;-75
2023/06/07 07:48:56;;;;;;;;;;;;;;;16.86;62.42;102019.09;5114210;28;19924;-75
2023/06/07 07:51:22;;;;;;;;;;;;;;;16.88;61.11;102017.25;5109678;28;20020;-75
2023/06/07 07:53:47;;;;;;;;;;;;;;;16.91;61.09;102012.72;5076231;28;19916;-75
2023/06/07 07:56:13;;;;;;;;;;;;;;;17.03;60.52;102016.78;5113131;28;20384;-76
2023/06/07 07:58:38;;;;;;;;;;;;;;;17.16;59.56;102015.53;5112310;28;19920;-76
2023/06/07 08:01:04;;;;;;;;;;;;;;;17.34;59.85;102023.91;5101895;28;20153;-76
2023/06/07 08:03:30;;;;;;;;;;;;;;;17.57;59.33;102034.75;5114213;28;19923;-76
2023/06/07 08:05:55;;;;;;;;;;;;;;;17.67;58.31;102035.31;5114241;28;19919;-76
2023/06/07 08:08:21;;;;;;;;;;;;;;;17.66;58.11;102035.41;5114230;28;19936;-76
2023/06/07 08:10:47;;;;;;;;;;;;;;;17.64;58.73;102032.75;5113862;28;20010;-76
2023/06/07 08:13:12;;;;;;;;;;;;;;;17.68;58.67;102028.16;5114312;28;20022;-76
2023/06/07 08:15:38;;;;;;;;;;;;;;;17.78;58.44;102026.97;5113839;28;19980;-76
2023/06/07 08:18:04;;;;;;;;;;;;;;;17.90;57.94;102023.00;5106412;28;20335;-76
2023/06/07 08:20:29;;;;;;;;;;;;;;;18.04;57.92;102015.38;5107422;28;20291;-76
2023/06/07 08:22:55;;;;;;;;;;;;;;;18.26;56.84;102019.06;5098055;28;19916;-76
2023/06/07 08:25:20;;;;;;;;;;;;;;;18.58;57.17;102017.03;5114097;28;20366;-76
2023/06/07 08:27:46;;;;;;;;;;;;;;;18.91;56.59;102006.84;5108805;28;19924;-76
2023/06/07 08:30:12;;;;;;;;;;;;;;;19.20;56.30;102009.38;5103129;28;20282;-76
2023/06/07 08:32:38;;;;;;;;;;;;;;;19.42;55.92;102017.44;5111949;27;19942;-76
2023/06/07 08:35:03;;;;;;;;;;;;;;;19.60;55.59;102024.75;5101282;28;19920;-76
2023/06/07 08:37:29;;;;;;;;;;;;;;;19.76;55.33;102020.53;5098206;28;20007;-76
2023/06/07 08:39:55;;;;;;;;;;;;;;;19.94;54.28;102018.00;5106698;28;20014;-76
2023/06/07 08:42:20;;;;;;;;;;;;;;;20.08;53.54;102012.91;5104768;28;19976;-76
2023/06/07 08:44:45;;;;;;;;;;;;;;;20.19;53.81;102018.69;5112426;28;20410;-76
2023/06/07 08:47:12;;;;;;;;;;;;;;;20.34;53.10;102024.34;5106648;28;19976;-76
2023/06/07 08:49:39;;;;;;;;;;;;;;;20.41;52.92;102018.63;5111615;28;20062;-76
2023/06/07 08:52:05;;;;;;;;;;;;;;;20.50;52.78;102013.75;5104029;28;19931;-76
2023/06/07 08:54:31;;;;;;;;;;;;;;;20.61;51.71;102015.06;5113291;28;19919;-76
2023/06/07 08:56:57;;;;;;;;;;;;;;;20.72;52.33;102008.31;5112987;28;19923;-76
2023/06/07 08:59:26;;;;;;;;;;;;;;;20.85;51.96;102009.53;5111586;28;19916;-76
2023/06/07 09:01:52;;;;;;;;;;;;;;;20.93;51.64;102011.84;5111663;28;19926;-76
2023/06/07 09:04:18;;;;;;;;;;;;;;;21.01;51.92;102005.13;5111267;28;19916;-76
2023/06/07 09:06:43;;;;;;;;;;;;;;;21.18;51.61;102000.78;5112961;28;19920;-76
2023/06/07 09:09:09;;;;;;;;;;;;;;;21.38;50.94;101999.81;5098114;28;20401;-76
2023/06/07 09:11:34;;;;;;;;;;;;;;;21.57;50.49;102003.38;5112629;28;19920;-76
2023/06/07 09:14:00;;;;;;;;;;;;;;;21.67;50.18;102010.06;5112811;28;19919;-76
2023/06/07 09:16:25;;;;;;;;;;;;;;;21.70;50.38;102009.03;5111241;28;19916;-76
2023/06/07 09:18:54;;;;;;;;;;;;;;;21.74;48.46;102017.84;5112674;28;19920;-76
2023/06/07 09:21:21;;;;;;;;;;;;;;;21.77;48.32;102013.16;5112692;28;19926;-76
2023/06/07 09:23:47;;;;;;;;;;;;;;;21.84;49.85;102016.44;5112687;28;19980;-76
2023/06/07 09:26:13;;;;;;;;;;;;;;;21.86;49.61;102019.94;5107589;28;19923;-76
2023/06/07 09:28:38;;;;;;;;;;;;;;;21.79;49.87;102024.75;5101365;28;19939;-76
2023/06/07 09:31:04;;;;;;;;;;;;;;;21.73;49.62;102018.78;5112518;28;19920;-76
2023/06/07 09:33:33;;;;;;;;;;;;;;;21.72;50.13;102020.63;5103524;28;19924;-77
2023/06/07 09:36:02;;;;;;;;;;;;;;;21.78;49.67;102008.66;5093247;28;19916;-76
2023/06/07 09:38:28;;;;;;;;;;;;;;;21.77;50.42;102013.16;5113274;28;20377;-76
2023/06/07 09:40:53;;;;;;;;;;;;;;;21.75;50.62;102014.19;5112150;28;19977;-76
2023/06/07 09:43:18;;;;;;;;;;;;;;;21.72;50.67;102019.75;5110808;28;19931;-76
2023/06/07 09:45:52;;;;;;;;;;;;;;;21.72;50.44;102012.53;5108773;28;20040;-77
2023/06/07 09:48:18;;;;;;;;;;;;;;;21.69;49.16;102010.88;5106972;27;20026;-77
2023/06/07 09:50:56;;;;;;;;;;;;;;;21.69;49.49;102018.09;5112139;28;20378;-77
2023/06/07 09:53:21;;;;;;;;;;;;;;;21.69;50.25;102013.56;5110505;28;19912;-76
2023/06/07 09:55:47;;;;;;;;;;;;;;;21.67;49.90;102011.91;5108088;28;19926;-77
2023/06/07 09:58:19;;;;;;;;;;;;;;;21.62;50.26;102001.34;5099051;28;19920;-77
2023/06/07 10:00:46;;;;;;;;;;;;;;;21.62;50.49;102006.72;5126867;27;19942;-77
2023/06/07 10:03:12;;;;;;;;;;;;;;;21.61;50.39;102012.19;5109731;28;19916;-76
2023/06/07 10:05:38;;;;;;;;;;;;;;;21.51;50.53;102006.38;5091164;28;19963;-77
2023/06/07 10:08:03;;;;;;;;;;;;;;;21.48;50.39;102007.41;5106502;28;19974;-76
2023/06/07 10:10:29;;;;;;;;;;;;;;;21.46;50.34;102011.13;5084777;28;19927;-77
2023/06/07 10:12:57;;;;;;;;;;;;;;;21.54;50.17;102010.72;5105689;28;20022;-73
2023/06/07 10:15:24;;;;;;;;;;;;;;;21.87;49.90;102002.78;5110190;28;19999;-73
2023/06/07 10:18:08;;;;;;;;;;;;;;;22.20;49.34;101994.81;5111695;28;20232;-73
2023/06/07 10:20:39;;;;;;;;;;;;;;;22.41;49.03;102000.03;5111358;28;19967;-73
2023/06/07 10:23:06;;;;;;;;;;;;;;;22.54;48.94;101995.72;5110908;28;19923;-73
2023/06/07 10:25:36;;;;;;;;;;;;;;;22.65;48.19;102000.53;5111344;28;19990;-73
2023/06/07 10:28:13;;;;;;;;;;;;;;;22.70;48.24;102001.13;5111653;28;20014;-73
2023/06/07 10:30:40;;;;;;;;;;;;;;;22.79;47.74;102006.06;5109819;28;20268;-73
2023/06/07 10:33:06;;;;;;;;;;;;;;;22.74;47.70;101997.34;5111635;28;19924;-73
2023/06/07 10:35:32;;;;;;;;;;;;;;;22.81;48.55;101987.06;5111118;28;20409;-73
2023/06/07 10:37:57;;;;;;;;;;;;;;;22.92;47.40;101992.72;5111653;28;19912;-73
2023/06/07 10:40:25;;;;;;;;;;;;;;;22.98;47.62;102003.25;5103988;28;20063;-73
2023/06/07 10:42:51;;;;;;;;;;;;;;;22.94;47.41;101998.94;5111382;28;19919;-73
2023/06/07 10:45:18;;;;;;;;;;;;;;;22.93;47.21;101997.19;5109483;28;19920;-73
2023/06/07 10:47:44;;;;;;;;;;;;;;;23.02;47.69;101994.03;5099983;28;19923;-73
2023/06/07 10:50:30;;;;;;;;;;;;;;;23.18;48.24;101988.63;5111272;28;19938;-73
2023/06/07 10:52:55;;;;;;;;;;;;;;;23.28;46.76;101992.53;5092339;28;20336;-73
2023/06/07 10:55:33;;;;;;;;;;;;;;;23.28;46.57;101988.97;5111368;28;19916;-73
2023/06/07 10:57:59;;;;;;;;;;;;;;;23.23;47.32;101981.13;5110981;28;19920;-73
2023/06/07 11:00:31;;;;;;;;;;;;;;;23.24;47.42;101979.28;5111328;28;19945;-73
2023/06/07 11:03:10;;;;;;;;;;;;;;;23.22;47.79;101970.38;5111402;28;19926;-73
2023/06/07 11:06:02;;;;;;;;;;;;;;;23.17;47.95;101984.19;5111260;28;19920;-73
2023/06/07 11:08:36;;;;;;;;;;;;;;;23.15;47.46;101972.59;5109657;28;19959;-73
2023/06/07 11:11:02;;;;;;;;;;;;;;;23.15;47.39;101978.84;5095407;28;19926;-73
2023/06/07 11:13:39;;;;;;;;;;;;;;;23.18;47.63;101975.09;5111231;28;20007;-73
2023/06/07 11:16:23;;;;;;;;;;;;;;;23.29;47.70;101977.19;5111280;28;20288;-73
2023/06/07 11:19:04;;;;;;;;;;;;;;;23.43;46.77;101971.00;5111171;28;19915;-73
2023/06/07 11:21:50;;;;;;;;;;;;;;;23.53;46.92;101973.06;5099083;28;19981;-73
2023/06/07 11:24:16;;;;;;;;;;;;;;;23.56;46.33;101966.59;5110786;28;20405;-73
2023/06/07 11:26:41;;;;;;;;;;;;;;;23.61;46.86;101959.09;5111104;28;19981;-73
2023/06/07 11:29:10;;;;;;;;;;;;;;;23.63;46.56;101959.88;5110471;28;19920;-73
2023/06/07 11:31:35;;;;;;;;;;;;;;;23.57;46.52;101954.84;5111019;28;19916;-73
2023/06/07 11:34:01;;;;;;;;;;;;;;;23.47;46.35;101961.75;5100491;28;19920;-73
2023/06/07 11:36:30;;;;;;;;;;;;;;;23.47;44.63;101949.09;5104101;28;19916;-74
2023/06/07 11:38:57;;;;;;;;;;;;;;;23.45;46.14;101952.84;5106400;28;20238;-73
2023/06/07 11:41:23;;;;;;;;;;;;;;;23.42;46.61;101956.63;5100732;28;20027;-73
2023/06/07 11:43:49;;;;;;;;;;;;;;;23.48;46.24;101941.84;5094099;28;20018;-73
2023/06/07 11:46:15;;;;;;;;;;;;;;;23.52;46.16;101949.69;5102974;28;19966;-73
2023/06/07 11:48:41;;;;;;;;;;;;;;;23.56;46.16;101937.72;5110538;28;19932;-73
2023/06/07 11:51:06;;;;;;;;;;;;;;;23.66;46.48;101938.03;5097637;28;19936;-73
2023/06/07 11:53:32;;;;;;;;;;;;;;;23.73;46.07;101933.19;5099489;28;19920;-73
2023/06/07 11:56:01;;;;;;;;;;;;;;;23.81;46.28;101937.19;5101705;28;20331;-73
2023/06/07 11:58:27;;;;;;;;;;;;;;;24.01;45.95;101940.50;5098324;28;20022;-73
2023/06/07 12:00:52;;;;;;;;;;;;;;;24.15;46.14;101945.94;5106710;28;20402;-73
2023/06/07 12:03:21;;;;;;;;;;;;;;;24.36;45.72;101940.16;5104719;28;20362;-73
2023/06/07 12:05:48;;;;;;;;;;;;;;;24.58;45.32;101940.59;5106202;28;19947;-73
2023/06/07 12:08:15;;;;;;;;;;;;;;;24.85;45.53;101937.94;5112627;28;19919;-73
2023/06/07 12:10:40;;;;;;;;;;;;;;;25.07;43.89;101937.41;5113530;28;19960;-74
2023/06/07 12:13:16;;;;;;;;;;;;;;;25.19;44.62;101941.16;5096317;28;19916;-74
2023/06/07 12:15:42;;;;;;;;;;;;;;;25.52;44.54;101934.47;5094088;28;19923;-74
2023/06/07 12:18:14;;;;;;;;;;;;;;;25.83;44.13;101929.66;5094634;28;19916;-74
2023/06/07 12:20:40;;;;;;;;;;;;;;;26.17;43.51;101936.34;5094102;28;19924;-72
2023/06/07 12:23:06;;;;;;;;;;;;;;;26.45;43.33;101931.66;5094561;28;19916;-74
2023/06/07 12:25:33;;;;;;;;;;;;;;;26.63;40.83;101935.78;5093660;28;20015;-74
2023/06/07 12:28:02;;;;;;;;;;;;;;;26.79;42.53;101925.53;5093803;28;19925;-74
2023/06/07 12:30:31;;;;;;;;;;;;;;;26.92;41.26;101927.34;5098983;28;19916;-74
2023/06/07 12:32:57;;;;;;;;;;;;;;;27.03;42.21;101928.31;5102335;28;20011;-74
2023/06/07 12:35:22;;;;;;;;;;;;;;;27.18;41.70;101929.03;5100765;28;20027;-74